Time;durP1;ratioP1;P1;durP2;ratioP2;P2;SDS_P1;SDS_P2;PMS_P1;PMS_P2;Temp;Humidity;BMP_temperature;BMP_pressure;BME280_temperature;BME280_humidity;BME280_pressure;Samples;Min_cycle;Max_cycle;Signal;HPM_P1;HPM_P2
2023/01/21 00:00:52;;;;;;;26.52;13.60;;;;;;;0.69;100.00;100723.75;20761012;28;20461;-67
2023/01/21 00:10:53;;;;;;;28.23;13.35;;;;;;;0.77;100.00;100723.16;20761826;28;20485;-67
2023/01/21 00:20:54;;;;;;;27.35;14.25;;;;;;;0.74;100.00;100729.94;20761943;28;20054;-67
2023/01/21 00:30:56;;;;;;;22.98;12.75;;;;;;;0.58;100.00;100735.47;20759380;28;20119;-67
2023/01/21 00:40:57;;;;;;;21.05;11.40;;;;;;;0.44;100.00;100743.66;20779795;28;20053;-67
2023/01/21 00:50:59;;;;;;;27.05;12.32;;;;;;;0.44;100.00;100748.78;20771307;28;20425;-68
2023/01/21 01:01:01;;;;;;;21.42;11.32;;;;;;;0.42;100.00;100759.88;20778318;28;20052;-68
2023/01/21 01:11:02;;;;;;;18.58;9.68;;;;;;;0.40;100.00;100766.69;20771806;28;20061;-67
2023/01/21 01:21:04;;;;;;;18.10;8.27;;;;;;;0.39;100.00;100770.09;20780004;28;20061;-67
2023/01/21 01:31:05;;;;;;;16.98;8.25;;;;;;;0.42;100.00;100794.22;20765563;28;20049;-67
2023/01/21 01:41:06;;;;;;;16.35;8.88;;;;;;;0.46;100.00;100808.09;20775960;28;20049;-67
2023/01/21 01:51:08;;;;;;;22.10;10.48;;;;;;;0.39;100.00;100819.03;20766326;28;20058;-68
2023/01/21 02:01:09;;;;;;;22.15;12.45;;;;;;;0.41;100.00;100832.81;20772059;28;20589;-69
2023/01/21 02:11:10;;;;;;;23.63;13.10;;;;;;;0.43;100.00;100850.09;20768974;28;20099;-68
2023/01/21 02:21:11;;;;;;;28.40;14.85;;;;;;;0.24;100.00;100847.75;20769072;28;20064;-68
2023/01/21 02:31:13;;;;;;;27.35;16.02;;;;;;;0.14;100.00;100851.69;20769029;28;20057;-68
2023/01/21 02:41:14;;;;;;;32.08;17.45;;;;;;;0.04;100.00;100869.34;20761183;28;20494;-68
2023/01/21 02:51:15;;;;;;;32.28;17.75;;;;;;;-0.17;100.00;100870.38;20768131;28;20057;-67
2023/01/21 03:01:17;;;;;;;34.58;18.67;;;;;;;-0.25;100.00;100876.94;20754082;28;20418;-67
2023/01/21 03:11:18;;;;;;;32.95;17.27;;;;;;;-0.45;100.00;100893.34;20766607;28;20049;-67
2023/01/21 03:21:19;;;;;;;32.97;16.92;;;;;;;-0.52;100.00;100890.56;20757663;28;20541;-66
2023/01/21 03:31:20;;;;;;;29.67;16.15;;;;;;;-0.66;100.00;100906.31;20763250;28;20715;-66
2023/01/21 03:41:22;;;;;;;30.13;15.75;;;;;;;-0.76;100.00;100917.06;20753618;28;20054;-66
2023/01/21 03:51:23;;;;;;;29.88;16.85;;;;;;;-0.87;100.00;100919.19;20756481;28;20046;-66
2023/01/21 04:01:24;;;;;;;35.22;17.35;;;;;;;-1.03;100.00;100933.16;20757971;28;20084;-66
2023/01/21 04:11:25;;;;;;;41.13;20.25;;;;;;;-1.22;100.00;100940.94;20769690;28;20131;-67
2023/01/21 04:21:27;;;;;;;42.13;20.33;;;;;;;-1.23;100.00;100959.75;20778005;28;20057;-69
2023/01/21 04:31:28;;;;;;;40.35;20.52;;;;;;;-1.40;100.00;100975.31;20769614;28;20053;-69
2023/01/21 04:41:29;;;;;;;50.85;22.38;;;;;;;-1.52;100.00;100986.81;20772613;28;20248;-70
2023/01/21 04:51:30;;;;;;;47.70;23.75;;;;;;;-1.59;100.00;100990.78;20768897;28;20062;-70
2023/01/21 05:01:32;;;;;;;48.13;24.83;;;;;;;-1.56;100.00;101007.19;20780592;28;20053;-71
2023/01/21 05:11:33;;;;;;;50.88;25.02;;;;;;;-1.68;100.00;101021.19;20764800;28;20107;-70
2023/01/21 05:21:34;;;;;;;53.75;25.40;;;;;;;-1.86;100.00;101026.41;20775431;28;20057;-71
2023/01/21 05:31:35;;;;;;;57.63;26.23;;;;;;;-1.99;100.00;101035.25;20765014;28;20425;-72
2023/01/21 05:41:37;;;;;;;56.03;26.50;;;;;;;-2.25;100.00;101051.13;20772019;28;20486;-70
2023/01/21 05:51:38;;;;;;;59.38;27.83;;;;;;;-2.42;100.00;101069.19;20763937;28;20619;-70
2023/01/21 06:01:39;;;;;;;59.30;27.98;;;;;;;-2.30;100.00;101091.06;20767367;28;20287;-71
2023/01/21 06:11:41;;;;;;;62.80;27.30;;;;;;;-2.19;100.00;101106.19;20768336;28;20053;-70
2023/01/21 06:21:42;;;;;;;61.40;27.40;;;;;;;-2.19;100.00;101110.44;20764756;28;20054;-70
2023/01/21 06:31:43;;;;;;;56.53;23.42;;;;;;;-2.32;100.00;101132.91;20768007;28;20084;-70
2023/01/21 06:41:44;;;;;;;48.35;20.75;;;;;;;-2.21;100.00;101141.13;20760486;28;20082;-70
2023/01/21 06:51:46;;;;;;;49.88;21.48;;;;;;;-2.20;100.00;101162.56;20770995;28;20108;-70
2023/01/21 07:01:47;;;;;;;44.65;18.48;;;;;;;-2.31;100.00;101167.13;20757032;28;20597;-70
2023/01/21 07:11:48;;;;;;;47.53;19.92;;;;;;;-2.32;100.00;101175.66;20771425;28;20120;-71
2023/01/21 07:21:50;;;;;;;54.45;23.15;;;;;;;-2.57;100.00;101196.66;20763305;28;20125;-70
2023/01/21 07:31:51;;;;;;;52.83;20.85;;;;;;;-2.70;100.00;101190.00;20763823;28;20065;-71
2023/01/21 07:41:52;;;;;;;52.33;21.55;;;;;;;-2.83;100.00;101210.69;20761067;28;20049;-71
2023/01/21 07:51:54;;;;;;;58.10;23.55;;;;;;;-2.78;100.00;101224.63;20757541;28;20057;-71
2023/01/21 08:01:56;;;;;;;54.60;22.08;;;;;;;-2.76;100.00;101235.84;20759186;28;20058;-71
2023/01/21 08:11:58;;;;;;;52.77;21.27;;;;;;;-2.33;100.00;101244.00;20755946;28;20056;-71
2023/01/21 08:21:59;;;;;;;48.92;21.38;;;;;;;-2.18;100.00;101250.72;20762595;28;20467;-71
2023/01/21 08:32:00;;;;;;;49.67;20.60;;;;;;;-1.90;100.00;101258.06;20752704;28;20050;-70
2023/01/21 08:42:02;;;;;;;45.80;19.42;;;;;;;-1.92;100.00;101257.09;20765425;28;20064;-70
2023/01/21 08:52:03;;;;;;;55.15;25.13;;;;;;;-1.76;100.00;101264.75;20775080;28;20111;-70
2023/01/21 09:02:04;;;;;;;53.00;23.77;;;;;;;-1.86;100.00;101286.53;20801138;28;20115;-70
2023/01/21 09:12:06;;;;;;;50.70;22.42;;;;;;;-1.89;100.00;101283.78;20798134;28;20056;-69
2023/01/21 09:22:08;;;;;;;55.00;23.00;;;;;;;-1.96;100.00;101296.28;20798732;28;20525;-68
2023/01/21 09:32:09;;;;;;;51.60;24.35;;;;;;;-1.91;100.00;101302.50;20770016;28;20049;-68
2023/01/21 09:42:11;;;;;;;50.25;21.88;;;;;;;-2.13;100.00;101310.81;20772405;28;20150;-68
2023/01/21 09:52:12;;;;;;;53.88;22.65;;;;;;;-1.63;100.00;101320.09;20769552;28;20049;-68
2023/01/21 10:02:13;;;;;;;48.30;20.95;;;;;;;-1.89;100.00;101324.84;20769374;28;20107;-67
2023/01/21 10:12:14;;;;;;;44.20;21.15;;;;;;;-1.76;100.00;101325.47;20782155;28;20062;-68
2023/01/21 10:22:16;;;;;;;48.50;22.05;;;;;;;-1.67;100.00;101313.97;20793450;28;20061;-69
2023/01/21 10:32:17;;;;;;;56.30;23.65;;;;;;;-1.50;100.00;101309.63;20797969;28;20061;-67
2023/01/21 10:42:18;;;;;;;60.90;25.70;;;;;;;-1.40;100.00;101316.06;20764111;28;20249;-67
2023/01/21 10:52:19;;;;;;;55.05;23.23;;;;;;;-1.25;100.00;101303.94;20775572;28;20061;-68
2023/01/21 11:02:22;;;;;;;52.92;21.50;;;;;;;-1.36;100.00;101302.56;20761176;28;20096;-67
2023/01/21 11:12:23;;;;;;;56.30;23.27;;;;;;;-1.47;100.00;101294.38;20769045;28;20053;-68
2023/01/21 11:22:26;;;;;;;47.05;21.70;;;;;;;-1.46;100.00;101285.84;20760015;28;20050;-68
2023/01/21 11:32:27;;;;;;;48.17;21.08;;;;;;;-1.34;100.00;101294.13;20765066;28;20046;-67
2023/01/21 11:42:28;;;;;;;50.38;21.45;;;;;;;-1.20;100.00;101281.91;20762034;28;20077;-67
2023/01/21 11:52:29;;;;;;;45.65;19.33;;;;;;;-1.41;100.00;101278.34;20765970;28;20092;-67
2023/01/21 12:02:31;;;;;;;44.28;19.60;;;;;;;-1.17;100.00;101304.28;20763582;28;20485;-67
2023/01/21 12:12:32;;;;;;;47.00;21.85;;;;;;;-1.11;100.00;101305.44;20758381;28;20073;-68
2023/01/21 12:22:33;;;;;;;56.25;22.50;;;;;;;-1.18;100.00;101300.84;20768118;28;20053;-68
2023/01/21 12:32:36;;;;;;;45.55;20.67;;;;;;;-1.30;100.00;101293.44;20768401;28;20111;-67
2023/01/21 12:42:37;;;;;;;44.47;19.17;;;;;;;-1.36;100.00;101290.59;20783683;28;20057;-67
2023/01/21 12:52:38;;;;;;;43.85;20.15;;;;;;;-1.31;100.00;101291.69;20770847;28;20103;-68
2023/01/21 13:02:40;;;;;;;44.25;19.00;;;;;;;-1.41;100.00;101299.78;20782975;28;20293;-67
2023/01/21 13:12:41;;;;;;;49.88;22.30;;;;;;;-1.31;100.00;101295.94;20771494;28;20084;-67
2023/01/21 13:22:42;;;;;;;51.28;22.48;;;;;;;-1.11;100.00;101294.28;20784610;28;20099;-69
2023/01/21 13:32:43;;;;;;;44.03;20.95;;;;;;;-1.13;100.00;101301.94;20767425;28;20095;-68
2023/01/21 13:42:46;;;;;;;43.72;20.35;;;;;;;-1.06;100.00;101292.81;20769262;28;20470;-68
2023/01/21 13:52:47;;;;;;;50.45;21.80;;;;;;;-0.89;100.00;101299.59;20769717;28;20077;-69
2023/01/21 14:02:49;;;;;;;44.67;18.70;;;;;;;-0.76;100.00;101308.75;20764616;28;20077;-69
2023/01/21 14:12:50;;;;;;;39.67;17.33;;;;;;;-0.72;100.00;101317.47;20769759;28;20085;-69
2023/01/21 14:22:51;;;;;;;32.42;15.25;;;;;;;-0.84;100.00;101328.97;20767631;28;20058;-68
2023/01/21 14:32:52;;;;;;;38.80;18.52;;;;;;;-0.78;100.00;101320.63;20770403;28;20532;-69
2023/01/21 14:42:54;;;;;;;41.80;18.58;;;;;;;-0.78;100.00;101325.78;20758044;28;20127;-70
2023/01/21 14:52:55;;;;;;;36.22;17.13;;;;;;;-0.83;100.00;101338.44;20769014;28;20058;-68
2023/01/21 15:02:56;;;;;;;32.75;16.10;;;;;;;-0.81;100.00;101341.97;20786073;28;20103;-71
2023/01/21 15:12:57;;;;;;;36.58;17.00;;;;;;;-0.79;100.00;101340.34;20786221;28;20518;-71
2023/01/21 15:22:59;;;;;;;45.63;20.08;;;;;;;-0.84;100.00;101357.25;20771831;28;20049;-70
2023/01/21 15:33:00;;;;;;;35.15;17.38;;;;;;;-0.84;100.00;101352.09;20761324;28;20061;-70
2023/01/21 15:43:02;;;;;;;37.78;15.88;;;;;;;-0.94;100.00;101359.34;20758028;28;20413;-70
2023/01/21 15:53:03;;;;;;;42.22;20.52;;;;;;;-0.78;100.00;101354.94;20755269;28;20050;-71
2023/01/21 16:03:04;;;;;;;31.88;14.07;;;;;;;-0.90;100.00;101359.53;20763368;28;20111;-71
2023/01/21 16:13:06;;;;;;;45.13;20.85;;;;;;;-0.90;100.00;101367.25;20754465;28;20062;-71
2023/01/21 16:23:07;;;;;;;37.33;18.73;;;;;;;-0.89;100.00;101386.13;20764704;28;20573;-71
2023/01/21 16:33:08;;;;;;;44.33;20.08;;;;;;;-0.90;100.00;101382.69;20755790;28;20076;-70
2023/01/21 16:43:10;;;;;;;38.00;16.55;;;;;;;-0.85;100.00;101385.47;20766211;28;20494;-68
2023/01/21 16:53:11;;;;;;;43.22;17.60;;;;;;;-0.73;100.00;101390.28;20752031;28;20486;-68
2023/01/21 17:03:12;;;;;;;36.40;15.27;;;;;;;-0.90;100.00;101392.97;20766128;28;20103;-69
2023/01/21 17:13:14;;;;;;;47.13;25.30;;;;;;;-0.90;100.00;101395.53;20757900;28;20053;-69
2023/01/21 17:23:15;;;;;;;35.55;15.52;;;;;;;-0.87;100.00;101398.22;20771936;28;20061;-68
2023/01/21 17:33:17;;;;;;;27.77;13.73;;;;;;;-0.78;100.00;101403.78;20766445;28;20079;-67
2023/01/21 17:43:18;;;;;;;22.85;10.75;;;;;;;-0.70;100.00;101403.28;20766146;28;20046;-68
2023/01/21 17:53:20;;;;;;;27.50;12.70;;;;;;;-0.65;100.00;101405.25;20768941;28;20077;-68
2023/01/21 18:03:21;;;;;;;26.58;12.73;;;;;;;-0.62;100.00;101414.81;20775270;28;20398;-67
2023/01/21 18:13:22;;;;;;;27.65;12.98;;;;;;;-0.63;100.00;101413.91;20764376;28;20141;-69
2023/01/21 18:23:23;;;;;;;33.83;15.93;;;;;;;-0.69;100.00;101412.75;20756514;28;20103;-68
2023/01/21 18:33:25;;;;;;;28.92;13.18;;;;;;;-0.55;100.00;101411.69;20767062;28;20084;-68
2023/01/21 18:43:26;;;;;;;26.60;11.70;;;;;;;-0.57;100.00;101410.75;20759383;28;20112;-68
2023/01/21 18:53:27;;;;;;;46.20;20.13;;;;;;;-0.58;100.00;101414.13;20764041;28;20189;-69
2023/01/21 19:03:28;;;;;;;25.75;12.55;;;;;;;-0.52;100.00;101406.69;20755695;28;20124;-68
2023/01/21 19:13:30;;;;;;;25.48;11.60;;;;;;;-0.53;100.00;101399.75;20761435;28;20108;-68
2023/01/21 19:23:31;;;;;;;23.25;10.90;;;;;;;-0.59;100.00;101400.38;20755482;28;20057;-69
2023/01/21 19:33:32;;;;;;;23.38;11.57;;;;;;;-0.54;100.00;101387.72;20757710;28;20502;-68
2023/01/21 19:43:33;;;;;;;26.17;12.10;;;;;;;-0.66;100.00;101400.06;20760091;28;20585;-69
2023/01/21 19:53:35;;;;;;;24.95;12.40;;;;;;;-0.64;100.00;101400.97;20757312;28;20062;-67
2023/01/21 20:03:36;;;;;;;22.52;10.63;;;;;;;-0.56;100.00;101402.22;20760770;28;20053;-67
2023/01/21 20:13:40;;;;;;;22.77;11.32;;;;;;;-0.51;100.00;101405.88;20754871;28;20132;-67
2023/01/21 20:23:41;;;;;;;26.58;11.90;;;;;;;-0.52;100.00;101404.13;20758706;28;20490;-69
2023/01/21 20:33:43;;;;;;;28.02;12.20;;;;;;;-0.59;100.00;101407.22;20746576;28;20107;-67
2023/01/21 20:43:44;;;;;;;26.48;12.98;;;;;;;-0.62;100.00;101395.13;20797249;23;20057;-81
2023/01/21 20:53:46;;;;;;;27.35;11.88;;;;;;;-0.63;100.00;101397.59;20735773;28;20050;-82
2023/01/21 21:03:48;;;;;;;20.23;9.07;;;;;;;-0.40;100.00;101384.06;20732070;28;20058;-81
2023/01/21 21:13:50;;;;;;;31.13;9.18;;;;;;;-0.33;100.00;101383.56;20727649;28;20046;-81
2023/01/21 21:23:52;;;;;;;31.83;12.53;;;;;;;-0.31;100.00;101387.06;20744030;28;20046;-81
2023/01/21 21:33:54;;;;;;;19.00;8.55;;;;;;;-0.41;100.00;101390.03;20740913;28;20107;-81
2023/01/21 21:43:55;;;;;;;20.30;9.23;;;;;;;-0.59;100.00;101379.81;20766307;28;20060;-81
2023/01/21 21:53:56;;;;;;;25.88;11.38;;;;;;;-0.68;100.00;101373.38;20766879;28;20050;-82
2023/01/21 22:03:58;;;;;;;21.23;10.43;;;;;;;-0.72;100.00;101366.31;20737639;28;20075;-83
2023/01/21 22:14:02;;;;;;;24.15;10.48;;;;;;;-0.67;100.00;101365.75;20758696;28;20054;-83
2023/01/21 22:24:06;;;;;;;20.20;10.18;;;;;;;-0.63;100.00;101365.03;20736734;28;20050;-82
2023/01/21 22:34:08;;;;;;;21.37;10.33;;;;;;;-0.69;100.00;101356.19;20751466;28;20045;-83
2023/01/21 22:44:09;;;;;;;21.52;9.80;;;;;;;-0.64;100.00;101346.97;20739251;28;20050;-83
2023/01/21 22:54:10;;;;;;;23.52;9.95;;;;;;;-0.71;100.00;101332.97;20733701;28;20050;-82
2023/01/21 23:04:13;;;;;;;26.17;11.18;;;;;;;-0.79;100.00;101322.34;20746929;28;20116;-83
2023/01/21 23:14:16;;;;;;;36.50;13.13;;;;;;;-0.84;100.00;101317.81;20716361;28;20050;-84
2023/01/21 23:24:17;;;;;;;36.47;15.05;;;;;;;-0.82;100.00;101305.88;20712919;28;20050;-83
2023/01/21 23:34:21;;;;;;;30.10;14.85;;;;;;;-0.85;100.00;101298.94;20699744;28;20106;-82
2023/01/21 23:44:24;;;;;;;35.65;15.30;;;;;;;-0.77;100.00;101291.53;20736313;28;20450;-83
2023/01/21 23:54:25;;;;;;;27.13;12.43;;;;;;;-0.72;100.00;101274.63;20727659;28;20430;-83
